Time;durP1;ratioP1;P1;durP2;ratioP2;P2;SDS_P1;SDS_P2;PMS_P1;PMS_P2;Temp;Humidity;BMP_temperature;BMP_pressure;BME280_temperature;BME280_humidity;BME280_pressure;Samples;Min_cycle;Max_cycle;Signal;HPM_P1;HPM_P2
2021/04/10 00:02:00;;;;;;;12.95;7.72;;;;;;;-1.06;64.04;93628.09;1786755;79;21360;-75
2021/04/10 00:04:27;;;;;;;9.18;5.40;;;;;;;-1.13;64.19;93621.66;1786850;80;21183;-77
2021/04/10 00:06:55;;;;;;;5.70;3.37;;;;;;;-1.15;64.30;93629.22;1786867;80;21064;-77
2021/04/10 00:09:22;;;;;;;6.50;3.37;;;;;;;-1.18;64.77;93631.18;1762707;80;21147;-76
2021/04/10 00:11:52;;;;;;;5.55;3.65;;;;;;;-1.23;65.24;93626.23;1786997;80;21047;-78
2021/04/10 00:14:19;;;;;;;5.28;3.70;;;;;;;-1.28;65.21;93621.08;1786747;80;21786;-76
2021/04/10 00:16:46;;;;;;;3.85;3.40;;;;;;;-1.28;65.29;93625.08;1786764;80;21507;-76
2021/04/10 00:19:14;;;;;;;3.02;2.42;;;;;;;-1.30;65.42;93627.82;1786731;80;21139;-76
2021/04/10 00:21:41;;;;;;;5.50;2.52;;;;;;;-1.37;66.01;93628.29;1786866;80;21128;-77
2021/04/10 00:24:12;;;;;;;3.83;2.85;;;;;;;-1.48;66.34;93627.03;1786721;80;21112;-76
2021/04/10 00:26:39;;;;;;;3.52;2.10;;;;;;;-1.56;66.53;93629.94;1787001;80;21526;-77
2021/04/10 00:29:06;;;;;;;3.97;3.00;;;;;;;-1.61;67.13;93622.66;1786641;80;21510;-76
2021/04/10 00:31:36;;;;;;;6.75;3.22;;;;;;;-1.72;67.24;93622.95;1804348;77;21106;-75
2021/04/10 00:34:03;;;;;;;4.50;2.60;;;;;;;-1.75;67.30;93627.58;1839854;77;21113;-76
2021/04/10 00:36:33;;;;;;;3.60;2.75;;;;;;;-1.79;67.85;93630.63;1827033;76;21102;-76
2021/04/10 00:39:00;;;;;;;5.80;2.90;;;;;;;-1.89;68.21;93629.59;1853321;77;22248;-75
2021/04/10 00:41:28;;;;;;;3.77;2.70;;;;;;;-1.91;68.18;93624.36;1821603;77;21593;-76
2021/04/10 00:43:55;;;;;;;3.02;2.15;;;;;;;-1.89;68.11;93626.92;1844903;77;21142;-77
2021/04/10 00:46:22;;;;;;;2.80;2.50;;;;;;;-1.86;68.48;93621.53;1836492;77;21520;-76
2021/04/10 00:48:51;;;;;;;4.33;3.37;;;;;;;-1.92;68.90;93622.77;1830407;77;21099;-76
2021/04/10 00:51:19;;;;;;;3.20;2.53;;;;;;;-1.93;68.88;93623.87;1850973;77;21185;-78
2021/04/10 00:53:47;;;;;;;4.40;2.73;;;;;;;-2.00;69.05;93618.98;1821068;78;21163;-75
2021/04/10 00:56:14;;;;;;;7.50;4.50;;;;;;;-2.08;69.74;93615.22;1848443;77;21054;-76
2021/04/10 00:58:43;;;;;;;4.67;3.73;;;;;;;-2.16;69.89;93617.88;1810966;77;21068;-76
2021/04/10 01:01:11;;;;;;;9.87;5.13;;;;;;;-2.26;70.04;93617.59;1786699;80;21123;-76
2021/04/10 01:03:40;;;;;;;11.63;6.03;;;;;;;-2.26;70.16;93615.75;1763035;80;21475;-76
2021/04/10 01:06:08;;;;;;;6.50;4.17;;;;;;;-2.29;70.37;93615.58;1786841;80;21159;-76
2021/04/10 01:08:36;;;;;;;4.30;2.90;;;;;;;-2.39;70.37;93613.97;1786713;80;21183;-76
2021/04/10 01:11:44;;;;;;;4.03;2.50;;;;;;;-2.46;71.18;93614.41;1786830;80;21499;-76
2021/04/10 01:14:28;;;;;;;2.87;2.30;;;;;;;-2.47;71.31;93611.52;1786811;80;21107;-76
2021/04/10 01:17:02;;;;;;;4.80;3.03;;;;;;;-2.42;71.22;93617.25;1786671;79;21151;-76
2021/04/10 01:20:24;;;;;;;2.63;2.30;;;;;;;-2.35;70.93;93618.91;1786657;80;21401;-76
2021/04/10 01:23:33;;;;;;;2.30;2.10;;;;;;;-2.27;70.74;93618.70;1777364;80;21059;-77
2021/04/10 01:26:15;;;;;;;4.20;3.10;;;;;;;-2.20;70.55;93619.81;1786382;80;21123;-77
2021/04/10 01:29:03;;;;;;;2.33;2.10;;;;;;;-2.19;70.16;93617.94;1786263;80;21052;-76
2021/04/10 01:31:38;;;;;;;3.23;2.50;;;;;;;-2.25;70.43;93621.85;1786736;80;21123;-76
2021/04/10 01:34:10;;;;;;;9.03;4.00;;;;;;;-2.27;70.37;93616.81;1786867;80;21479;-77
2021/04/10 01:36:40;;;;;;;4.00;2.83;;;;;;;-2.25;70.22;93620.52;1762669;80;21140;-76
2021/04/10 01:39:09;;;;;;;8.47;4.00;;;;;;;-2.30;70.58;93625.42;1786829;80;21154;-76
2021/04/10 01:41:45;;;;;;;3.40;2.20;;;;;;;-2.32;70.68;93616.19;1786706;79;21126;-76
2021/04/10 01:44:14;;;;;;;3.80;2.50;;;;;;;-2.39;70.96;93617.19;1786860;80;21362;-75
2021/04/10 01:46:42;;;;;;;2.73;1.73;;;;;;;-2.43;71.24;93617.02;1786724;80;21080;-76
2021/04/10 01:49:10;;;;;;;2.47;2.23;;;;;;;-2.43;71.31;93616.23;1786777;80;21112;-74
2021/04/10 01:51:37;;;;;;;4.80;2.60;;;;;;;-2.46;71.41;93621.07;1786717;78;21610;-74
2021/04/10 01:54:05;;;;;;;2.50;2.00;;;;;;;-2.45;71.34;93618.64;1786956;80;21048;-75
2021/04/10 01:56:33;;;;;;;2.57;2.33;;;;;;;-2.44;71.31;93616.78;1786683;80;21487;-75
2021/04/10 01:59:02;;;;;;;2.77;2.00;;;;;;;-2.46;71.25;93614.41;1786638;80;21576;-74
2021/04/10 02:01:37;;;;;;;3.20;1.90;;;;;;;-2.47;71.31;93618.73;1782810;80;21179;-76
2021/04/10 02:04:05;;;;;;;2.30;2.10;;;;;;;-2.47;71.42;93611.52;1786805;80;21064;-75
2021/04/10 02:06:33;;;;;;;3.40;2.80;;;;;;;-2.49;71.46;93614.24;1786772;80;21459;-76
2021/04/10 02:09:06;;;;;;;13.07;7.00;;;;;;;-2.52;71.48;93616.19;1820462;78;21355;-76
2021/04/10 02:11:39;;;;;;;4.50;2.87;;;;;;;-2.56;71.51;93620.01;1818864;77;21151;-75
2021/04/10 02:14:11;;;;;;;3.27;1.90;;;;;;;-2.62;71.72;93615.93;1819625;78;21120;-74
2021/04/10 02:16:41;;;;;;;3.30;2.10;;;;;;;-2.62;71.89;93616.48;1819348;78;21171;-75
2021/04/10 02:19:10;;;;;;;2.80;1.90;;;;;;;-2.61;71.99;93613.50;1820298;78;21068;-75
2021/04/10 02:21:39;;;;;;;3.30;2.30;;;;;;;-2.62;72.04;93611.16;1824916;77;22347;-75
2021/04/10 02:24:09;;;;;;;1.90;1.70;;;;;;;-2.65;72.07;93615.20;1846159;77;21085;-75
2021/04/10 02:26:44;;;;;;;2.97;1.87;;;;;;;-2.66;72.31;93616.31;1846155;77;21044;-76
2021/04/10 02:29:14;;;;;;;3.07;2.40;;;;;;;-2.71;72.51;93613.77;1806727;77;21156;-75
2021/04/10 02:31:56;;;;;;;2.07;1.70;;;;;;;-2.76;72.55;93613.36;1800412;78;21051;-74
2021/04/10 02:34:26;;;;;;;13.30;6.05;;;;;;;-2.72;72.58;93606.87;1782152;78;21097;-74
2021/04/10 02:36:56;;;;;;;7.57;3.70;;;;;;;-2.69;72.41;93611.05;1785464;79;21149;-74
2021/04/10 02:39:25;;;;;;;5.37;2.73;;;;;;;-2.67;72.25;93611.27;1810981;79;21074;-74
2021/04/10 02:41:53;;;;;;;9.83;5.33;;;;;;;-2.69;72.44;93600.39;1810793;79;21061;-75
2021/04/10 02:44:25;;;;;;;17.83;7.40;;;;;;;-2.68;72.55;93602.51;1793296;79;21588;-75
2021/04/10 02:46:57;;;;;;;12.57;5.83;;;;;;;-2.67;72.62;93611.27;1773483;79;21212;-75
2021/04/10 02:49:29;;;;;;;7.53;4.70;;;;;;;-2.66;72.85;93606.21;1813668;79;21152;-75
2021/04/10 02:51:59;;;;;;;21.73;10.40;;;;;;;-2.65;72.75;93610.44;1817174;79;21544;-75
2021/04/10 02:54:35;;;;;;;17.10;8.20;;;;;;;-2.65;72.48;93611.77;1817278;78;21169;-74
2021/04/10 02:57:12;;;;;;;19.80;9.07;;;;;;;-2.66;72.35;93609.66;1792783;79;21077;-75
2021/04/10 02:59:49;;;;;;;10.33;4.80;;;;;;;-2.67;72.56;93608.09;1817195;79;21161;-74
2021/04/10 03:02:18;;;;;;;15.37;7.43;;;;;;;-2.69;72.71;93608.93;1842648;77;21159;-74
2021/04/10 03:04:47;;;;;;;13.03;7.43;;;;;;;-2.70;72.87;93615.35;1842861;77;21044;-74
2021/04/10 03:07:16;;;;;;;19.53;10.40;;;;;;;-2.71;72.62;93613.24;1813887;77;21256;-74
2021/04/10 03:09:46;;;;;;;21.67;9.60;;;;;;;-2.74;72.45;93613.07;1808431;79;21484;-75
2021/04/10 03:12:15;;;;;;;10.23;5.27;;;;;;;-2.84;72.49;93608.78;1836698;78;21374;-74
2021/04/10 03:14:43;;;;;;;19.77;9.40;;;;;;;-2.97;73.02;93613.13;1846331;77;21550;-75
2021/04/10 03:17:20;;;;;;;26.77;11.87;;;;;;;-3.01;73.07;93610.83;1816159;79;21062;-74
2021/04/10 03:19:50;;;;;;;17.97;8.50;;;;;;;-3.08;73.35;93613.69;1792456;79;21607;-74
2021/04/10 03:22:18;;;;;;;6.63;3.20;;;;;;;-3.12;73.44;93609.52;1842961;77;21237;-74
2021/04/10 03:24:46;;;;;;;15.17;6.10;;;;;;;-3.12;73.62;93611.37;1842930;77;21475;-74
2021/04/10 03:27:15;;;;;;;7.93;4.57;;;;;;;-3.12;73.90;93612.70;1810211;77;21595;-74
2021/04/10 03:29:43;;;;;;;4.20;3.43;;;;;;;-3.07;73.94;93612.04;1808440;79;21492;-75
2021/04/10 03:32:13;;;;;;;6.03;3.10;;;;;;;-3.06;73.93;93606.95;1819767;78;21026;-74
2021/04/10 03:34:42;;;;;;;4.43;2.47;;;;;;;-3.06;73.95;93616.27;1824919;77;21478;-74
2021/04/10 03:37:10;;;;;;;3.37;2.50;;;;;;;-3.08;74.08;93610.48;1772454;80;21376;-74
2021/04/10 03:39:38;;;;;;;6.57;3.70;;;;;;;-3.08;73.96;93618.45;1772451;81;21099;-74
2021/04/10 03:42:09;;;;;;;2.67;2.30;;;;;;;-3.06;74.18;93620.80;1775318;79;21088;-74
2021/04/10 03:44:37;;;;;;;4.17;3.00;;;;;;;-3.06;74.21;93619.47;1823759;78;21157;-74
2021/04/10 03:47:07;;;;;;;16.77;7.37;;;;;;;-3.04;74.42;93614.09;1839233;77;21574;-75
2021/04/10 03:49:34;;;;;;;6.57;3.87;;;;;;;-3.04;74.08;93607.44;1797491;78;21485;-74
2021/04/10 03:52:03;;;;;;;16.60;7.87;;;;;;;-3.03;74.21;93613.55;1795497;80;21172;-74
2021/04/10 03:54:30;;;;;;;8.57;4.73;;;;;;;-3.01;74.19;93611.35;1736002;81;21650;-75
2021/04/10 03:56:58;;;;;;;6.83;3.40;;;;;;;-2.98;74.04;93611.53;1782529;79;21116;-74
2021/04/10 03:59:27;;;;;;;4.70;2.67;;;;;;;-2.99;74.13;93611.30;1776198;79;21053;-74
2021/04/10 04:01:57;;;;;;;2.47;2.00;;;;;;;-2.99;74.39;93615.28;1758454;80;21402;-75
2021/04/10 04:04:26;;;;;;;2.67;2.27;;;;;;;-2.99;74.62;93611.84;1815764;78;21076;-75
2021/04/10 04:06:55;;;;;;;2.43;2.00;;;;;;;-3.04;74.68;93612.77;1846624;77;21070;-75
2021/04/10 04:09:24;;;;;;;3.37;2.20;;;;;;;-3.04;75.11;93616.76;1840758;77;21056;-75
2021/04/10 04:11:53;;;;;;;4.67;3.00;;;;;;;-3.04;75.11;93622.63;1754576;80;21065;-75
2021/04/10 04:14:21;;;;;;;4.50;2.93;;;;;;;-2.99;75.35;93626.48;1824719;77;22094;-74
2021/04/10 04:16:48;;;;;;;4.10;2.77;;;;;;;-2.99;75.13;93621.16;1837866;77;21147;-76
2021/04/10 04:19:16;;;;;;;6.13;3.73;;;;;;;-2.91;75.16;93623.63;1780873;80;21069;-76
2021/04/10 04:21:44;;;;;;;4.07;2.50;;;;;;;-2.81;75.18;93623.37;1765188;81;21029;-74
2021/04/10 04:24:11;;;;;;;8.77;5.23;;;;;;;-2.67;74.54;93625.39;1816804;76;21143;-73
2021/04/10 04:26:39;;;;;;;13.70;5.70;;;;;;;-2.52;73.95;93630.83;1842766;77;22326;-72
2021/04/10 04:29:07;;;;;;;7.70;4.50;;;;;;;-2.43;73.62;93630.88;1842850;77;21512;-73
2021/04/10 04:31:34;;;;;;;8.60;5.30;;;;;;;-2.35;72.61;93624.24;1842909;77;21092;-72
2021/04/10 04:34:02;;;;;;;8.37;5.10;;;;;;;-2.25;72.58;93629.30;1842950;77;21471;-76
2021/04/10 04:36:30;;;;;;;9.63;6.03;;;;;;;-2.22;72.61;93623.88;1814774;77;21507;-73
2021/04/10 04:38:57;;;;;;;10.27;6.10;;;;;;;-2.23;72.27;93628.97;1833600;77;21615;-72
2021/04/10 04:41:24;;;;;;;12.23;7.23;;;;;;;-2.14;72.07;93620.47;1837302;77;21043;-73
2021/04/10 04:43:52;;;;;;;9.83;4.37;;;;;;;-1.89;72.48;93623.48;1835021;78;21052;-74
2021/04/10 04:46:19;;;;;;;8.03;4.87;;;;;;;-1.61;71.80;93627.98;1780873;80;21118;-73
2021/04/10 04:48:46;;;;;;;16.57;9.47;;;;;;;-1.46;70.66;93628.85;1835134;77;21134;-75
2021/04/10 04:51:16;;;;;;;15.43;10.03;;;;;;;-1.15;70.30;93622.55;1793139;79;21373;-72
2021/04/10 04:53:43;;;;;;;21.37;13.18;;;;;;;-0.61;68.96;93625.55;1781090;79;21057;-75
2021/04/10 04:56:10;;;;;;;27.87;14.03;;;;;;;-0.16;68.22;93621.04;1806591;79;21512;-74
2021/04/10 04:58:38;;;;;;;7.33;5.03;;;;;;;0.08;67.21;93623.13;1816938;77;21108;-75
2021/04/10 05:01:05;;;;;;;8.78;5.75;;;;;;;0.11;63.55;93621.90;1843905;77;21066;-75
2021/04/10 05:03:33;;;;;;;14.23;8.00;;;;;;;0.09;64.53;93624.13;1818875;77;21388;-75
2021/04/10 05:06:01;;;;;;;12.85;6.08;;;;;;;0.08;64.63;93626.58;1833041;77;21552;-76
2021/04/10 05:08:28;;;;;;;11.20;7.78;;;;;;;0.06;64.25;93631.45;1843880;77;21099;-75
2021/04/10 05:10:55;;;;;;;7.20;5.37;;;;;;;0.10;64.96;93626.24;1839366;77;21253;-74
2021/04/10 05:13:24;;;;;;;6.58;4.75;;;;;;;0.09;64.18;93628.70;1841017;78;21491;-74
2021/04/10 05:15:52;;;;;;;7.62;4.83;;;;;;;0.06;63.27;93626.66;1810646;78;21192;-74
2021/04/10 05:18:19;;;;;;;6.83;4.72;;;;;;;-0.01;63.36;93626.61;1814954;79;21135;-73
2021/04/10 05:20:48;;;;;;;5.85;4.55;;;;;;;0.00;62.52;93627.42;1815019;79;21109;-73
2021/04/10 05:23:24;;;;;;;6.08;4.97;;;;;;;0.01;62.34;93622.85;1815007;79;21466;-73
2021/04/10 05:25:52;;;;;;;6.08;4.58;;;;;;;0.07;62.62;93628.22;1815076;79;21052;-74
2021/04/10 05:28:20;;;;;;;8.58;4.22;;;;;;;0.03;62.47;93633.98;1815145;79;21185;-73
2021/04/10 05:30:49;;;;;;;7.12;4.90;;;;;;;0.00;62.21;93628.75;1814986;79;21583;-74
2021/04/10 05:33:16;;;;;;;7.95;4.75;;;;;;;-0.02;62.15;93634.41;1816549;79;21055;-73
2021/04/10 05:35:44;;;;;;;5.83;4.95;;;;;;;-0.02;62.27;93630.95;1842962;77;21040;-73
2021/04/10 05:38:11;;;;;;;5.85;4.35;;;;;;;0.03;62.04;93644.13;1842990;77;21093;-74
2021/04/10 05:40:39;;;;;;;6.83;5.17;;;;;;;0.06;62.05;93631.45;1842864;77;21714;-72
2021/04/10 05:43:07;;;;;;;8.63;5.22;;;;;;;0.12;62.12;93634.74;1808578;77;21239;-73
2021/04/10 05:45:35;;;;;;;6.90;4.58;;;;;;;0.21;61.57;93630.11;1830675;78;21035;-75
2021/04/10 05:48:03;;;;;;;6.37;4.55;;;;;;;0.31;61.46;93630.30;1846466;77;21462;-75
2021/04/10 05:50:31;;;;;;;6.90;4.97;;;;;;;0.38;61.51;93631.34;1804109;79;21563;-72
2021/04/10 05:52:58;;;;;;;8.83;5.10;;;;;;;0.39;61.13;93628.11;1777456;80;21782;-74
2021/04/10 05:55:26;;;;;;;10.23;6.97;;;;;;;0.40;61.53;93630.45;1811969;78;21555;-76
2021/04/10 05:57:53;;;;;;;9.13;5.35;;;;;;;0.48;61.58;93638.18;1810001;78;21054;-74
2021/04/10 06:00:21;;;;;;;8.35;5.37;;;;;;;0.48;61.04;93634.95;1814744;79;21147;-75
2021/04/10 06:02:50;;;;;;;7.80;5.60;;;;;;;0.48;61.58;93642.98;1815560;79;21110;-74
2021/04/10 06:05:19;;;;;;;8.75;5.80;;;;;;;0.45;61.18;93634.28;1817327;79;22233;-74
2021/04/10 06:07:48;;;;;;;9.35;5.60;;;;;;;0.39;61.13;93642.83;1842821;77;21143;-75
2021/04/10 06:10:19;;;;;;;9.43;6.40;;;;;;;0.38;61.17;93638.59;1812087;77;21131;-75
2021/04/10 06:12:47;;;;;;;9.60;6.37;;;;;;;0.39;61.35;93632.91;1836790;77;21066;-76
2021/04/10 06:15:19;;;;;;;12.50;7.45;;;;;;;0.39;61.67;93634.80;1852282;77;21102;-76
2021/04/10 06:17:46;;;;;;;11.00;6.72;;;;;;;0.46;61.78;93627.82;1774630;80;21809;-75
2021/04/10 06:20:16;;;;;;;10.40;5.90;;;;;;;0.79;62.30;93635.66;1775904;79;21042;-76
2021/04/10 06:22:43;;;;;;;9.20;6.15;;;;;;;1.24;60.13;93631.69;1784411;80;21078;-75
2021/04/10 06:25:12;;;;;;;9.90;6.00;;;;;;;1.59;59.29;93633.46;1829945;78;21088;-77
2021/04/10 06:27:39;;;;;;;8.65;6.25;;;;;;;1.94;57.84;93636.50;1821143;78;21519;-76
2021/04/10 06:30:08;;;;;;;11.50;6.92;;;;;;;2.33;56.27;93623.53;1814859;79;21431;-78
2021/04/10 06:32:35;;;;;;;10.35;6.92;;;;;;;2.72;56.42;93620.42;1814829;79;21175;-77
2021/04/10 06:35:05;;;;;;;14.40;7.58;;;;;;;3.30;54.80;93612.22;1814893;79;21240;-78
2021/04/10 06:37:34;;;;;;;14.00;8.63;;;;;;;3.65;53.35;93609.67;1815145;79;21594;-78
2021/04/10 06:40:05;;;;;;;10.08;5.65;;;;;;;3.85;51.95;93605.73;1762278;80;21055;-78
2021/04/10 06:42:33;;;;;;;9.95;5.90;;;;;;;3.90;51.70;93608.92;1778891;80;21770;-76
2021/04/10 06:45:01;;;;;;;11.22;6.65;;;;;;;4.09;50.96;93608.78;1778459;79;21553;-77
2021/04/10 06:47:30;;;;;;;11.55;6.87;;;;;;;4.23;50.73;93604.30;1781592;79;21258;-77
2021/04/10 06:49:57;;;;;;;10.05;6.83;;;;;;;4.25;50.86;93606.06;1803018;79;21168;-78
2021/04/10 06:52:25;;;;;;;9.40;6.65;;;;;;;4.35;50.45;93604.18;1817780;77;21567;-78
2021/04/10 06:55:08;;;;;;;11.00;7.28;;;;;;;4.50;50.39;93603.93;1842838;77;22376;-78
2021/04/10 06:57:58;;;;;;;9.20;6.90;;;;;;;4.67;48.26;93613.54;1841597;77;21088;-78
2021/04/10 07:00:26;;;;;;;9.30;7.03;;;;;;;4.76;49.60;93612.76;1842739;77;21053;-76
2021/04/10 07:02:56;;;;;;;11.15;7.37;;;;;;;4.85;47.30;93608.73;1824047;77;21081;-77
2021/04/10 07:05:24;;;;;;;10.70;6.45;;;;;;;4.83;48.89;93610.21;1758035;77;21495;-77
2021/04/10 07:07:52;;;;;;;13.48;7.62;;;;;;;4.87;47.31;93604.33;1842893;77;21463;-75
2021/04/10 07:10:20;;;;;;;13.55;9.08;;;;;;;5.03;48.19;93609.07;1842715;77;21096;-75
2021/04/10 07:12:47;;;;;;;16.25;8.50;;;;;;;5.06;47.80;93606.24;1842849;77;21135;-78
2021/04/10 07:15:17;;;;;;;10.43;6.37;;;;;;;5.09;47.73;93603.62;1842812;77;21080;-77
2021/04/10 07:17:51;;;;;;;11.45;6.75;;;;;;;5.32;46.72;93596.92;1839356;77;21156;-78
2021/04/10 07:20:28;;;;;;;12.68;7.97;;;;;;;5.52;45.76;93596.31;1842927;77;22247;-78
2021/04/10 07:23:10;;;;;;;10.53;6.30;;;;;;;5.70;45.31;93596.63;1842873;77;21151;-77
2021/04/10 07:25:43;;;;;;;9.28;5.83;;;;;;;5.87;45.09;93598.09;1842793;77;21132;-78
2021/04/10 07:28:33;;;;;;;8.58;5.80;;;;;;;6.02;46.54;93592.38;1842826;77;21095;-77
2021/04/10 07:31:11;;;;;;;12.10;7.75;;;;;;;6.39;45.26;93595.81;1842840;77;21539;-78
2021/04/10 07:33:46;;;;;;;9.88;6.30;;;;;;;6.72;43.53;93589.13;1808265;77;21112;-77
2021/04/10 07:36:14;;;;;;;8.93;6.12;;;;;;;6.91;42.52;93590.14;1799878;77;21135;-77
2021/04/10 07:38:44;;;;;;;8.23;5.17;;;;;;;7.06;42.43;93588.59;1842817;77;21316;-79
2021/04/10 07:41:18;;;;;;;8.30;5.83;;;;;;;7.32;42.49;93592.95;1843010;77;21603;-77
2021/04/10 07:43:45;;;;;;;7.97;5.40;;;;;;;7.52;40.33;93581.58;1842776;77;21238;-77
2021/04/10 07:46:22;;;;;;;8.90;5.72;;;;;;;7.53;40.06;93585.06;1795164;77;21658;-77
2021/04/10 07:49:11;;;;;;;7.58;5.17;;;;;;;7.57;40.51;93584.52;1813786;77;21156;-75
2021/04/10 07:51:54;;;;;;;7.65;4.90;;;;;;;7.70;39.59;93584.44;1842057;77;21515;-77
2021/04/10 07:54:34;;;;;;;7.37;5.37;;;;;;;7.80;39.82;93576.23;1842190;77;21084;-79
2021/04/10 07:57:05;;;;;;;7.22;4.72;;;;;;;7.96;39.55;93578.68;1842283;77;21646;-78
2021/04/10 07:59:53;;;;;;;7.92;5.08;;;;;;;8.16;38.97;93581.92;1842441;77;21406;-78
2021/04/10 08:02:23;;;;;;;6.20;5.20;;;;;;;8.29;38.75;93581.84;1842877;77;21527;-79
2021/04/10 08:05:02;;;;;;;8.10;5.00;;;;;;;8.40;39.22;93581.38;1842277;77;21253;-77
2021/04/10 08:07:31;;;;;;;7.22;4.97;;;;;;;8.65;38.51;93580.73;1790824;77;22188;-80
2021/04/10 08:10:01;;;;;;;5.70;4.70;;;;;;;8.82;39.10;93582.02;1813986;78;21148;-78
2021/04/10 08:12:33;;;;;;;4.97;4.25;;;;;;;9.09;37.27;93577.09;1839228;78;21890;-77
2021/04/10 08:15:02;;;;;;;7.70;5.12;;;;;;;9.23;35.79;93574.44;1839127;78;21709;-79
2021/04/10 08:17:37;;;;;;;5.28;4.00;;;;;;;9.30;38.59;93577.19;1839169;78;21160;-79
2021/04/10 08:20:25;;;;;;;5.97;4.75;;;;;;;9.64;37.90;93586.39;1837696;78;21040;-80
2021/04/10 08:22:54;;;;;;;5.87;4.92;;;;;;;9.96;36.57;93576.92;1813718;78;21611;-79
2021/04/10 08:25:33;;;;;;;6.97;4.45;;;;;;;10.21;36.29;93583.15;1793787;78;21520;-76
2021/04/10 08:28:00;;;;;;;7.20;4.90;;;;;;;10.37;34.53;93577.34;1777925;78;21197;-79
2021/04/10 08:30:28;;;;;;;5.80;4.83;;;;;;;10.38;35.41;93584.35;1771136;79;21148;-80
2021/04/10 08:32:55;;;;;;;8.33;4.22;;;;;;;10.39;34.74;93578.33;1814777;79;21076;-81
2021/04/10 08:35:23;;;;;;;5.65;3.90;;;;;;;10.44;35.33;93569.19;1814931;79;21040;-82
2021/04/10 08:38:00;;;;;;;5.95;4.47;;;;;;;10.52;35.27;93575.98;1814710;79;21048;-81
2021/04/10 08:40:29;;;;;;;6.22;4.67;;;;;;;10.59;35.64;93588.98;1814706;79;21539;-83
2021/04/10 08:42:58;;;;;;;7.30;4.95;;;;;;;10.76;35.05;93578.48;1810550;79;21123;-81
2021/04/10 08:45:38;;;;;;;13.45;8.60;;;;;;;10.92;35.25;93574.73;1814689;79;21052;-80
2021/04/10 08:48:06;;;;;;;15.78;7.78;;;;;;;11.18;34.93;93574.26;1807249;79;21465;-77
2021/04/10 08:50:38;;;;;;;9.18;5.95;;;;;;;11.43;32.16;93565.20;1746197;82;22200;-78
2021/04/10 08:53:09;;;;;;;8.88;5.83;;;;;;;11.33;32.51;93564.09;1810664;79;21069;-81
2021/04/10 08:55:40;;;;;;;6.47;4.53;;;;;;;11.18;33.91;93574.26;1814853;79;21156;-81
2021/04/10 08:58:19;;;;;;;6.33;4.37;;;;;;;11.14;33.52;93574.86;1814960;79;21621;-81
2021/04/10 09:00:58;;;;;;;6.25;4.28;;;;;;;11.08;33.97;93565.54;1794065;79;21579;-83
2021/04/10 09:03:48;;;;;;;6.10;4.50;;;;;;;11.21;34.63;93569.18;1814820;79;21479;-82
2021/04/10 09:06:35;;;;;;;9.58;5.08;;;;;;;11.38;35.00;93570.47;1814808;79;21682;-77
2021/04/10 09:09:17;;;;;;;7.22;5.78;;;;;;;11.60;34.42;93557.53;1810363;79;21084;-79
2021/04/10 09:11:46;;;;;;;7.28;5.20;;;;;;;11.64;32.65;93559.64;1746809;82;21581;-79
2021/04/10 09:14:13;;;;;;;7.12;5.10;;;;;;;11.51;32.93;93557.77;1810861;79;21108;-80
2021/04/10 09:16:49;;;;;;;6.17;4.25;;;;;;;11.39;32.88;93558.99;1766240;79;21628;-82
2021/04/10 09:19:27;;;;;;;4.75;4.20;;;;;;;11.40;33.66;93567.37;1759261;79;21172;-80
2021/04/10 09:21:59;;;;;;;5.33;4.22;;;;;;;11.36;33.23;93561.94;1816639;78;21060;-79
2021/04/10 09:24:43;;;;;;;5.95;4.60;;;;;;;11.28;31.83;93553.59;1814623;79;21452;-81
2021/04/10 09:27:24;;;;;;;4.47;3.60;;;;;;;11.14;32.57;93563.20;1814760;79;21105;-78
2021/04/10 09:29:58;;;;;;;5.50;4.42;;;;;;;11.04;33.34;93562.06;1814791;79;21570;-78
2021/04/10 09:32:38;;;;;;;5.80;4.33;;;;;;;10.89;32.66;93568.13;1747623;79;21636;-76
2021/04/10 09:35:17;;;;;;;15.28;4.15;;;;;;;10.73;33.62;93569.15;1803640;79;21052;-81
2021/04/10 09:37:51;;;;;;;4.97;3.42;;;;;;;10.66;34.84;93561.00;1814832;79;21100;-78
2021/04/10 09:40:26;;;;;;;3.58;3.27;;;;;;;10.78;35.47;93566.61;1814796;79;21123;-79
2021/04/10 09:43:05;;;;;;;4.78;3.62;;;;;;;10.92;35.19;93567.94;1814673;79;21431;-79
2021/04/10 09:45:37;;;;;;;5.12;4.03;;;;;;;10.90;33.28;93564.82;1814600;79;21242;-78
2021/04/10 09:48:11;;;;;;;4.97;4.00;;;;;;;10.85;33.75;93566.59;1814552;79;21164;-76
2021/04/10 09:50:46;;;;;;;6.10;3.92;;;;;;;10.83;33.84;93570.27;1813448;79;21171;-80
2021/04/10 09:53:24;;;;;;;6.05;4.05;;;;;;;10.76;33.83;93564.88;1753201;79;21086;-79
2021/04/10 09:56:08;;;;;;;4.50;3.60;;;;;;;10.66;33.04;93554.20;1793155;79;21611;-80
2021/04/10 09:58:52;;;;;;;10.50;6.65;;;;;;;10.67;34.24;93554.39;1776256;79;21094;-77
2021/04/10 10:01:31;;;;;;;9.13;4.15;;;;;;;10.66;32.83;93556.92;1771254;79;21109;-76
2021/04/10 10:03:56;;;;;;;8.08;5.00;;;;;;;10.52;33.23;93552.28;1800470;77;21149;-75
2021/04/10 10:06:34;;;;;;;5.85;3.83;;;;;;;10.39;34.18;93556.58;1800327;79;21061;-79
2021/04/10 10:09:17;;;;;;;7.00;4.40;;;;;;;10.21;33.67;93557.92;1796789;79;21203;-79
2021/04/10 10:11:56;;;;;;;5.17;3.60;;;;;;;10.15;34.08;93566.25;1810766;79;21470;-77
2021/04/10 10:14:28;;;;;;;4.92;3.72;;;;;;;10.19;34.62;93560.23;1781868;78;21629;-76
2021/04/10 10:16:54;;;;;;;5.30;3.72;;;;;;;10.13;33.46;93561.80;1777860;80;21178;-76
2021/04/10 10:19:22;;;;;;;6.67;4.35;;;;;;;9.95;32.98;93557.12;1821743;77;21159;-82
2021/04/10 10:21:50;;;;;;;5.45;3.90;;;;;;;9.88;34.75;93553.05;1821769;78;21199;-81
2021/04/10 10:24:22;;;;;;;4.08;3.37;;;;;;;9.97;35.96;93554.81;1815948;79;21646;-80
2021/04/10 10:26:50;;;;;;;6.65;4.28;;;;;;;10.19;36.93;93548.80;1799306;79;21160;-82
2021/04/10 10:29:19;;;;;;;7.97;5.05;;;;;;;10.43;35.94;93560.84;1777700;80;21110;-82
2021/04/10 10:31:52;;;;;;;8.78;4.60;;;;;;;10.61;35.52;93545.09;1823133;77;21032;-80
2021/04/10 10:34:23;;;;;;;9.55;4.60;;;;;;;10.68;35.36;93552.66;1816303;79;21317;-81
2021/04/10 10:36:53;;;;;;;4.75;3.60;;;;;;;10.66;34.55;93551.48;1799847;78;21192;-80
2021/04/10 10:39:27;;;;;;;5.75;3.62;;;;;;;10.60;35.00;93551.68;1778777;80;21539;-80
2021/04/10 10:41:55;;;;;;;5.42;3.95;;;;;;;10.65;34.93;93548.58;1811449;78;21183;-77
2021/04/10 10:44:23;;;;;;;4.00;3.58;;;;;;;10.76;33.67;93545.25;1791500;77;21044;-77
2021/04/10 10:47:01;;;;;;;9.80;4.47;;;;;;;10.81;33.25;93550.28;1814027;77;22385;-77
2021/04/10 10:49:29;;;;;;;5.97;3.77;;;;;;;10.76;32.71;93543.89;1842792;77;21594;-77
2021/04/10 10:51:56;;;;;;;4.60;3.58;;;;;;;10.64;33.23;93536.93;1842891;77;21123;-78
2021/04/10 10:54:33;;;;;;;6.95;3.55;;;;;;;10.72;34.90;93542.33;1842423;77;21242;-81
2021/04/10 10:57:15;;;;;;;5.15;3.95;;;;;;;10.88;35.07;93543.46;1838424;77;21075;-78
2021/04/10 10:59:45;;;;;;;;;;;;;;;10.92;33.93;93562.49;1784215;77;21355;-77
2021/04/10 11:02:18;;;;;;;4.60;2.92;;;;;;;10.85;32.64;93553.77;1821013;78;20211;-82
2021/04/10 11:04:47;;;;;;;4.55;3.55;;;;;;;10.83;34.60;93549.88;1812502;78;21048;-81
2021/04/10 11:07:15;;;;;;;4.37;3.52;;;;;;;10.87;34.45;93560.16;1793462;78;21456;-80
2021/04/10 11:09:42;;;;;;;5.42;3.47;;;;;;;10.85;34.08;93559.80;1768177;78;21060;-80
2021/04/10 11:12:13;;;;;;;5.37;3.67;;;;;;;10.80;33.62;93549.33;1823726;78;22234;-77
2021/04/10 11:14:44;;;;;;;6.55;4.47;;;;;;;10.88;32.90;93544.05;1814585;79;38357;-80
2021/04/10 11:17:15;;;;;;;7.42;4.37;;;;;;;10.99;33.80;93542.66;1814932;77;21071;-81
2021/04/10 11:19:45;;;;;;;4.78;3.80;;;;;;;11.14;34.61;93546.88;1816196;79;21064;-83
2021/04/10 11:22:17;;;;;;;10.20;4.50;;;;;;;11.17;34.26;93544.14;1817720;79;21025;-80
2021/04/10 11:24:49;;;;;;;8.83;4.67;;;;;;;11.16;32.78;93556.17;1817826;79;21408;-82
2021/04/10 11:27:25;;;;;;;5.90;4.20;;;;;;;11.14;33.69;93550.37;1817834;79;21060;-83
2021/04/10 11:30:03;;;;;;;8.10;4.65;;;;;;;11.15;34.97;93541.61;1817836;79;21049;-81
2021/04/10 11:32:42;;;;;;;6.33;3.90;;;;;;;11.23;34.58;93538.27;1817876;77;21112;-80
2021/04/10 11:35:19;;;;;;;5.33;3.70;;;;;;;11.31;33.30;93540.55;1817848;78;21103;-81
2021/04/10 11:37:53;;;;;;;4.95;3.30;;;;;;;11.39;33.29;93544.02;1817243;79;21346;-79
2021/04/10 11:40:34;;;;;;;4.42;3.42;;;;;;;11.43;32.85;93538.77;1817706;79;21068;-83
2021/04/10 11:43:06;;;;;;;5.90;3.87;;;;;;;11.51;33.70;93540.86;1817768;79;21067;-82
2021/04/10 11:45:40;;;;;;;5.45;3.15;;;;;;;11.56;32.59;93535.58;1795271;79;21463;-82
2021/04/10 11:48:19;;;;;;;4.78;3.65;;;;;;;11.51;33.22;93536.78;1817753;78;21179;-77
2021/04/10 11:50:55;;;;;;;6.85;4.42;;;;;;;11.51;31.62;93543.59;1817847;79;21190;-77
2021/04/10 11:53:39;;;;;;;8.88;4.25;;;;;;;11.42;30.28;93528.25;1817444;79;21171;-78
2021/04/10 11:56:33;;;;;;;4.30;3.35;;;;;;;11.24;32.45;93526.20;1817864;79;28280;-77